x

Lake Winnipeg Narrows (45145) Wave Buoy

12:00pm - Mon 26th Jun 2017 All times are UTC.

  • Sig Wave height 4.3ft
  • Wind
    13mph, 16mph gusts
  • Sea Temp 60°f
  • Air Temp 58°f
  • Sea Pressure 1020.1mb

More Historic Weather Station data

Upgrade to MSW Pro to gain access to the past 30 days of data for over 8000 Wavebouys and Weather Stations around the globe.

Join Pro

Comparision Forecast

View Surf forecast
   
Mon 06/26 12:00pm 4.5ft 13 16 mph 1020.1mb 60f 58f
11:00am 4.5ft 13 16 mph 1020mb 60f 58f
10:00am 4ft 13 16 mph 1019.8mb 60f 59f
9:00am 4ft 13 16 mph 1019.8mb 60f 59f
8:00am 3.5ft 11 13 mph 1019.9mb 60f 60f
7:00am 3ft 11 13 mph 1019.9mb 60f 60f
6:00am 2.5ft 11 13 mph 1019.9mb 60f 60f
5:00am 2.5ft 11 13 mph 1020.1mb 60f 61f
4:00am 2.5ft 9 9 mph 1020.2mb 60f 62f
3:00am 3.5ft 9 11 mph 1020.3mb 60f 62f
2:00am 3.5ft 11 13 mph 1020.3mb 60f 62f
1:00am 3ft 11 13 mph 1020.9mb 60f 62f
12:00am 4ft 11 13 mph 1021mb 60f 61f
Sun 06/25 11:00pm 4ft 13 16 mph 1021.3mb 60f 61f
10:00pm 3.5ft 16 18 mph 1021.3mb 60f 60f
9:00pm 4.5ft 18 20 mph 1021.7mb 60f 60f
8:00pm  -  18
mph
- - -
7:00pm 4.5ft 18 22 mph 1021.8mb 60f 58f
6:00pm 2.5ft 16 18 mph 1022.1mb 60f 57f
5:00pm 2.5ft 9 9 mph 1022.5mb 60f 57f
4:00pm 2ft 9 9 mph 1022.7mb 60f 56f
3:00pm 2.5ft 9 11 mph 1022.8mb 60f 56f
2:00pm 2.5ft 4 7 mph 1022.7mb 59f 57f
1:00pm 3ft 4 7 mph 1022.6mb 59f 55f
12:00pm 3.5ft 9 13 mph 1022.4mb 59f 56f
11:00am 4.5ft 11 16 mph 1022.2mb 60f 55f
10:00am 3.5ft 11 16 mph 1022mb 60f 53f
9:00am 5ft 11 13 mph 1021.9mb 60f 55f
8:00am 4ft 18 20 mph 1021.7mb 60f 55f
7:00am 4.5ft 16 20 mph 1021.8mb 60f 55f
6:00am 4.5ft 16 18 mph 1021.8mb 60f 56f
5:00am 4.5ft 18 20 mph 1021.6mb 60f 56f
4:00am 5.5ft 18 22 mph 1021.5mb 60f 55f
3:00am 5ft 22 25 mph 1021mb 60f 56f
2:00am 6ft 22 27 mph 1020.8mb 60f 56f
1:00am  -  22
mph
- - 56f
12:00am 5.5ft 25 31 mph 1020.5mb 60f 56f
Sat 06/24 11:00pm 7ft 27 31 mph 1020.3mb 60f 56f
10:00pm 7ft 27 36 mph 1019.7mb 60f 56f
9:00pm 5ft 29 34 mph 1019.4mb 60f 56f
8:00pm 4.5ft 20 27 mph 1019.1mb 60f 57f
7:00pm 3.5ft 16 20 mph 1018.8mb 60f 58f
6:00pm 4ft 16 20 mph 1018.7mb 60f 56f
5:00pm 4.5ft 16 18 mph 1018.3mb 60f 54f
4:00pm 4ft 13 18 mph 1017.9mb 60f 51f
3:00pm 5ft 16 22 mph 1017.5mb 59f 49f
2:00pm 4.5ft 18 22 mph 1016.9mb 59f 48f
1:00pm 4.5ft 18 22 mph 1016.1mb 59f 49f
12:00pm  -  20
mph
- - -
11:00am 4.5ft 20 25 mph 1014.3mb 59f 50f
10:00am 5ft 22 29 mph 1013mb 60f 51f
9:00am 4.5ft 22 27 mph 1012.5mb 60f 53f
8:00am 4.5ft 20 25 mph 1012.2mb 60f 54f
7:00am 4.5ft 20 22 mph 1011.8mb 60f 55f
6:00am 4.5ft 16 18 mph 1011.5mb 60f 56f
5:00am 5ft 18 22 mph 1011.3mb 60f 55f
4:00am 6ft 22 27 mph 1011.3mb 60f 54f
3:00am 6ft 25 29 mph 1011mb 60f 54f
2:00am 6ft 25 29 mph 1011.3mb 60f 54f
1:00am 6ft 22 27 mph 1011mb 60f 54f
12:00am 7ft 25 31 mph 1010.6mb 60f 54f
Fri 06/23 11:00pm 6.5ft 27 34 mph 1010.2mb 60f 54f
10:00pm  -  31
mph
- - -
9:00pm 8.5ft 31 38 mph 1009mb 60f 53f
8:00pm 7ft 31 36 mph 1008.7mb 60f 53f
7:00pm 7ft 29 36 mph 1008.2mb 60f 54f
6:00pm 6.5ft 27 36 mph 1007.9mb 60f 55f
5:00pm 6ft 25 31 mph 1007.7mb 60f 55f
4:00pm 7ft 27 31 mph 1007mb 60f 55f
3:00pm 7ft 27 34 mph 1006.3mb 60f 56f
2:00pm 7ft 27 36 mph 1006.2mb 60f 56f
1:00pm 7.5ft 27 31 mph 1005.2mb 60f 56f
12:00pm 6ft 29 36 mph 1004.7mb 60f 56f
11:00am  -  29
mph
1004mb - 57f
10:00am 5ft 25 29 mph 1003.3mb 60f 58f
9:00am 4ft 22 27 mph 1002.4mb 60f 58f
8:00am 4.5ft 18 20 mph 1002.1mb 60f 59f
7:00am 4ft 16 20 mph 1001.7mb 60f 59f
6:00am 4ft 16 18 mph 1001.4mb 60f 58f
5:00am 4.5ft 18 20 mph 1001mb 61f 58f
4:00am 4.5ft 18 22 mph 1000.5mb 60f 58f
3:00am 4.5ft 18 22 mph 999.6mb 61f 58f
2:00am 5ft 20 25 mph 998.8mb 61f 58f
1:00am 1.6ft 16 18 mph 998.2mb 61f 58f
12:00am 2.5ft 13 27 mph 997.6mb 61f 58f
Thu 06/22 11:00pm 4.5ft 11 13 mph 997.5mb 61f 58f
10:00pm 3.5ft 11 13 mph 997.4mb 61f 58f
9:00pm 4.5ft 13 16 mph 997.3mb 61f 58f
8:00pm 4.5ft 18 22 mph 997.1mb 60f 58f
7:00pm 4.5ft 18 22 mph 997.1mb 60f 58f
6:00pm 5ft 20 27 mph 997.2mb 61f 58f
5:00pm 5ft 22 29 mph 997mb 61f 59f
4:00pm 5ft 22 29 mph 997.2mb 61f 57f
3:00pm 5ft 20 25 mph 997.2mb 60f 59f
2:00pm 5ft 18 22 mph 997.5mb 61f 60f